createdAt,value
2018-04-24T00:01:51.352Z,0.60
2018-04-24T00:04:19.631Z,0.60
2018-04-24T00:06:48.636Z,0.60
2018-04-24T00:09:16.896Z,0.60
2018-04-24T00:11:45.903Z,0.50
2018-04-24T00:14:14.165Z,0.60
2018-04-24T00:16:43.211Z,0.60
2018-04-24T00:19:11.506Z,0.60
2018-04-24T00:21:39.749Z,0.60
2018-04-24T00:24:08.104Z,0.60
2018-04-24T00:26:37.142Z,0.60
2018-04-24T00:29:05.400Z,0.60
2018-04-24T00:31:33.708Z,0.60
2018-04-24T00:34:01.946Z,0.60
2018-04-24T00:36:30.249Z,0.60
2018-04-24T00:38:58.485Z,0.60
2018-04-24T00:41:26.778Z,0.60
2018-04-24T00:43:55.016Z,0.60
2018-04-24T00:46:24.044Z,0.60
2018-04-24T00:48:52.322Z,0.60
2018-04-24T00:51:20.577Z,0.60
2018-04-24T00:53:49.624Z,0.60
2018-04-24T00:56:17.934Z,0.60
2018-04-24T00:58:47.723Z,0.70
2018-04-24T01:01:16.006Z,0.60
2018-04-24T01:03:44.295Z,0.60
2018-04-24T01:06:14.078Z,0.70
2018-04-24T01:08:42.377Z,0.60
2018-04-24T01:11:10.613Z,0.70
2018-04-24T01:13:38.872Z,0.60
2018-04-24T01:16:07.125Z,0.60
2018-04-24T01:18:36.192Z,0.60
2018-04-24T01:21:04.429Z,0.60
2018-04-24T01:23:32.729Z,0.60
2018-04-24T01:26:01.008Z,0.60
2018-04-24T01:28:29.274Z,0.60
2018-04-24T01:30:57.524Z,0.60
2018-04-24T01:33:25.766Z,0.60
2018-04-24T01:35:54.061Z,0.60
2018-04-24T01:38:23.064Z,0.60
2018-04-24T01:40:52.097Z,0.60
2018-04-24T01:43:20.385Z,0.60
2018-04-24T01:45:48.639Z,0.60
2018-04-24T01:48:16.887Z,0.60
2018-04-24T01:50:45.909Z,0.60
2018-04-24T01:53:14.195Z,0.60
2018-04-24T01:55:42.494Z,0.60
2018-04-24T01:58:10.779Z,0.60
2018-04-24T02:00:39.051Z,0.60
2018-04-24T02:03:07.334Z,0.60
2018-04-24T02:05:35.614Z,0.60
2018-04-24T02:08:03.913Z,0.60
2018-04-24T02:10:32.139Z,0.60
2018-04-24T02:13:00.481Z,0.60
2018-04-24T02:15:29.522Z,0.60
2018-04-24T02:17:57.820Z,0.60
2018-04-24T02:20:26.105Z,0.60
2018-04-24T02:22:54.360Z,0.60
2018-04-24T02:25:24.232Z,0.60
2018-04-24T02:27:53.277Z,0.60
2018-04-24T02:30:23.087Z,0.60
2018-04-24T02:32:51.379Z,0.60
2018-04-24T02:35:19.853Z,0.60
2018-04-24T02:37:48.131Z,0.60
2018-04-24T02:40:16.449Z,0.60
2018-04-24T02:42:44.706Z,0.60
2018-04-24T02:45:13.018Z,0.60
2018-04-24T02:47:41.273Z,0.70
2018-04-24T02:50:10.336Z,0.60
2018-04-24T02:52:38.610Z,0.60
2018-04-24T02:55:06.917Z,0.60
2018-04-24T02:57:35.931Z,0.60
2018-04-24T03:00:04.209Z,0.60
2018-04-24T03:02:33.205Z,0.60
2018-04-24T03:05:01.523Z,0.60
2018-04-24T03:07:29.760Z,0.60
2018-04-24T03:09:58.789Z,0.60
2018-04-24T03:12:27.029Z,0.60
2018-04-24T03:14:55.325Z,0.60
2018-04-24T03:17:23.570Z,0.60
2018-04-24T03:19:52.589Z,0.60
2018-04-24T03:22:20.848Z,0.60
2018-04-24T03:24:49.132Z,0.60
2018-04-24T03:27:18.241Z,0.60
2018-04-24T03:29:46.532Z,0.60
2018-04-24T03:32:14.829Z,0.60
2018-04-24T03:34:43.107Z,0.60
2018-04-24T03:37:11.368Z,0.60
2018-04-24T03:39:39.610Z,0.60
2018-04-24T03:42:07.895Z,0.60
2018-04-24T03:44:36.474Z,0.60
2018-04-24T03:47:05.482Z,0.60
2018-04-24T03:49:33.785Z,0.60
2018-04-24T03:52:02.022Z,0.60
2018-04-24T03:54:30.327Z,0.60
2018-04-24T03:56:59.242Z,0.60
2018-04-24T03:59:27.542Z,0.60
2018-04-24T04:01:56.597Z,0.70
2018-04-24T04:04:24.866Z,0.60
2018-04-24T04:06:53.151Z,0.60
2018-04-24T04:09:21.398Z,0.60
2018-04-24T04:11:50.411Z,0.60
2018-04-24T04:14:18.705Z,0.70
2018-04-24T04:16:46.981Z,0.60
2018-04-24T04:19:27.197Z,0.60
2018-04-24T04:22:07.943Z,0.60
2018-04-24T04:24:43.812Z,0.70
2018-04-24T04:27:12.832Z,0.60
2018-04-24T04:29:41.081Z,0.60
2018-04-24T04:32:10.188Z,0.60
2018-04-24T04:34:39.229Z,0.60
2018-04-24T04:37:07.644Z,0.60
2018-04-24T04:39:35.889Z,0.60
2018-04-24T04:42:04.180Z,0.60
2018-04-24T04:44:32.411Z,0.67
2018-04-24T04:47:00.716Z,0.60
2018-04-24T04:49:28.994Z,0.60
2018-04-24T04:51:57.287Z,0.60
2018-04-24T04:54:25.628Z,0.60
2018-04-24T04:56:54.657Z,0.60
2018-04-24T04:59:22.899Z,0.60
2018-04-24T05:01:51.151Z,0.60
2018-04-24T05:04:20.212Z,0.60
2018-04-24T05:06:48.449Z,0.60
2018-04-24T05:09:16.724Z,0.60
2018-04-24T05:11:45.016Z,0.70
2018-04-24T05:14:13.525Z,0.60
2018-04-24T05:16:41.806Z,0.60
2018-04-24T05:19:10.097Z,0.70
2018-04-24T05:21:38.381Z,0.70
2018-04-24T05:24:06.650Z,0.63
2018-04-24T05:26:34.921Z,0.60
2018-04-24T05:29:03.167Z,0.60
2018-04-24T05:31:31.597Z,0.60
2018-04-24T05:34:00.642Z,0.60
2018-04-24T05:36:29.226Z,0.60
2018-04-24T05:38:57.479Z,0.60
2018-04-24T05:41:25.732Z,0.60
2018-04-24T05:43:54.783Z,0.60
2018-04-24T05:46:23.087Z,0.60
2018-04-24T05:48:51.365Z,0.60
2018-04-24T05:51:21.198Z,0.60
2018-04-24T05:53:50.236Z,0.60
2018-04-24T05:56:18.526Z,0.60
2018-04-24T05:58:46.784Z,0.63
2018-04-24T06:01:15.051Z,0.60
2018-04-24T06:03:43.325Z,0.70
2018-04-24T06:06:11.616Z,0.60
2018-04-24T06:08:40.487Z,0.70
2018-04-24T06:11:08.699Z,0.60
2018-04-24T06:13:36.960Z,0.60
2018-04-24T06:16:05.242Z,0.60
2018-04-24T06:18:33.495Z,0.60
2018-04-24T06:21:01.751Z,0.60
2018-04-24T06:23:31.771Z,0.60
2018-04-24T06:26:00.766Z,0.60
2018-04-24T06:28:29.868Z,0.60
2018-04-24T06:30:58.113Z,0.60
2018-04-24T06:33:27.860Z,0.60
2018-04-24T06:35:56.140Z,0.60
2018-04-24T06:38:25.858Z,0.60
2018-04-24T06:40:54.124Z,0.60
2018-04-24T06:43:22.369Z,0.60
2018-04-24T06:45:51.484Z,0.60
2018-04-24T06:48:20.491Z,0.60
2018-04-24T06:50:48.748Z,0.60
2018-04-24T06:53:17.759Z,0.60
2018-04-24T06:55:46.783Z,0.60
2018-04-24T06:58:15.101Z,0.60
2018-04-24T07:00:43.492Z,0.60
2018-04-24T07:03:12.700Z,0.60
2018-04-24T07:05:41.760Z,0.60
2018-04-24T07:08:09.996Z,0.60
2018-04-24T07:10:38.306Z,0.60
2018-04-24T07:13:06.547Z,0.60
2018-04-24T07:15:34.801Z,0.60
2018-04-24T07:18:03.832Z,0.60
2018-04-24T07:20:32.063Z,0.60
2018-04-24T07:23:01.095Z,0.60
2018-04-24T07:25:30.096Z,0.60
2018-04-24T07:27:58.397Z,0.60
2018-04-24T07:30:26.668Z,0.60
2018-04-24T07:32:54.999Z,0.60
2018-04-24T07:35:24.776Z,0.60
2018-04-24T07:37:53.090Z,0.60
2018-04-24T07:40:22.912Z,0.60
2018-04-24T07:42:51.190Z,0.60
2018-04-24T07:45:20.199Z,0.60
2018-04-24T07:47:48.486Z,0.60
2018-04-24T07:50:16.791Z,0.60
2018-04-24T07:52:45.087Z,0.60
2018-04-24T07:55:13.919Z,0.60
2018-04-24T07:57:42.197Z,0.60
2018-04-24T08:00:10.455Z,0.60
2018-04-24T08:02:39.509Z,0.60
2018-04-24T08:05:09.352Z,0.60
2018-04-24T08:07:37.642Z,0.60
2018-04-24T08:10:07.848Z,0.60
2018-04-24T08:12:36.154Z,0.50
2018-04-24T08:15:04.443Z,0.60
2018-04-24T08:17:32.746Z,0.60
2018-04-24T08:20:01.023Z,0.60
2018-04-24T08:22:39.116Z,0.60
2018-04-24T08:25:07.982Z,0.53
2018-04-24T08:27:36.279Z,0.60
2018-04-24T08:30:04.591Z,0.50
2018-04-24T08:32:32.879Z,0.60
2018-04-24T08:35:01.889Z,0.60
2018-04-24T08:37:30.910Z,0.60
2018-04-24T08:39:59.219Z,0.50
2018-04-24T08:42:27.460Z,0.60
2018-04-24T08:44:55.712Z,0.60
2018-04-24T08:47:24.781Z,0.60
2018-04-24T08:49:53.028Z,0.60
2018-04-24T08:52:22.055Z,0.60
2018-04-24T08:54:50.358Z,0.60
2018-04-24T08:57:19.564Z,0.60
2018-04-24T08:59:47.805Z,0.60
2018-04-24T09:02:16.086Z,0.60
2018-04-24T09:04:44.404Z,0.60
2018-04-24T09:07:13.454Z,0.60
2018-04-24T09:09:41.746Z,0.60
2018-04-24T09:12:11.493Z,0.60
2018-04-24T09:14:39.806Z,0.50
2018-04-24T09:17:08.086Z,0.60
2018-04-24T09:19:36.370Z,0.53
2018-04-24T09:22:04.699Z,0.60
2018-04-24T09:24:34.484Z,0.60
2018-04-24T09:27:02.931Z,0.60
2018-04-24T09:29:31.095Z,0.60
2018-04-24T09:31:59.400Z,0.60
2018-04-24T09:34:28.611Z,0.60
2018-04-24T09:36:58.378Z,0.50
2018-04-24T09:39:26.653Z,0.50
2018-04-24T09:41:54.995Z,0.60
2018-04-24T09:44:24.046Z,0.60
2018-04-24T09:46:52.299Z,0.60
2018-04-24T09:49:20.575Z,0.50
2018-04-24T09:51:48.883Z,0.50
2018-04-24T09:54:17.173Z,0.60
2018-04-24T09:56:45.556Z,0.60
2018-04-24T09:59:13.774Z,0.50
2018-04-24T10:01:42.783Z,0.60
2018-04-24T10:04:11.070Z,0.60
2018-04-24T10:06:39.346Z,0.50
2018-04-24T10:09:07.603Z,0.50
2018-04-24T10:11:35.848Z,0.60
2018-04-24T10:14:04.121Z,0.50
2018-04-24T10:16:32.365Z,0.60
2018-04-24T10:19:00.670Z,0.60
2018-04-24T10:21:28.951Z,0.60
2018-04-24T10:23:57.232Z,0.60
2018-04-24T10:26:25.534Z,0.60
2018-04-24T10:28:54.536Z,0.50
2018-04-24T10:31:22.850Z,0.50
2018-04-24T10:33:51.125Z,0.50
2018-04-24T10:36:19.415Z,0.60
2018-04-24T10:38:47.690Z,0.50
2018-04-24T10:41:15.946Z,0.60
2018-04-24T10:43:44.187Z,0.60
2018-04-24T10:46:13.254Z,0.50
2018-04-24T10:48:41.535Z,0.60
2018-04-24T10:51:09.812Z,0.60
2018-04-24T10:53:38.115Z,0.50
2018-04-24T10:56:06.417Z,0.60
2018-04-24T10:58:34.664Z,0.60
2018-04-24T11:01:03.686Z,0.50
2018-04-24T11:03:31.989Z,0.50
2018-04-24T11:06:00.276Z,0.50
2018-04-24T11:08:28.561Z,0.50
2018-04-24T11:10:56.808Z,0.40
2018-04-24T11:13:25.067Z,0.50
2018-04-24T11:15:53.311Z,0.60
2018-04-24T11:18:22.348Z,0.50
2018-04-24T11:20:50.629Z,0.50
2018-04-24T11:23:18.923Z,0.50
2018-04-24T11:25:47.155Z,0.50
2018-04-24T11:28:16.220Z,0.50
2018-04-24T11:30:44.511Z,0.47
2018-04-24T11:33:12.749Z,0.50
2018-04-24T11:35:41.004Z,0.60
2018-04-24T11:38:09.408Z,0.50
2018-04-24T11:40:37.659Z,0.50
2018-04-24T11:43:05.954Z,0.50
2018-04-24T11:45:34.340Z,0.50
2018-04-24T11:48:02.619Z,0.50
2018-04-24T11:50:30.912Z,0.50
2018-04-24T11:52:59.146Z,0.47
2018-04-24T11:55:27.447Z,0.50
2018-04-24T11:57:55.724Z,0.50
2018-04-24T12:00:23.976Z,0.50
2018-04-24T12:02:52.230Z,0.50
2018-04-24T12:05:20.501Z,0.50
2018-04-24T12:07:48.752Z,0.40
2018-04-24T12:10:17.060Z,0.50
2018-04-24T12:12:46.078Z,0.43
2018-04-24T12:15:14.334Z,0.40
2018-04-24T12:17:43.353Z,0.50
2018-04-24T12:20:11.639Z,0.50
2018-04-24T12:22:39.894Z,0.40
2018-04-24T12:25:08.163Z,0.50
2018-04-24T12:27:37.182Z,0.40
2018-04-24T12:30:05.430Z,0.40
2018-04-24T12:32:34.521Z,0.50
2018-04-24T12:35:03.531Z,0.50
2018-04-24T12:37:32.588Z,0.40
2018-04-24T12:40:01.622Z,0.40
2018-04-24T12:42:30.681Z,0.47
2018-04-24T12:44:58.919Z,0.50
2018-04-24T12:47:27.198Z,0.40
2018-04-24T12:49:55.516Z,0.40
2018-04-24T12:52:23.747Z,0.40
2018-04-24T12:54:52.009Z,0.50
2018-04-24T12:57:20.299Z,0.40
2018-04-24T12:59:48.551Z,0.50
2018-04-24T13:02:16.799Z,0.50
2018-04-24T13:04:45.180Z,0.40
2018-04-24T13:07:13.365Z,0.40
2018-04-24T13:09:42.462Z,0.40
2018-04-24T13:12:10.746Z,0.40
2018-04-24T13:14:39.897Z,0.40
2018-04-24T13:17:08.148Z,0.40
2018-04-24T13:19:36.449Z,0.47
2018-04-24T13:22:04.687Z,0.50
2018-04-24T13:24:32.986Z,0.50
2018-04-24T13:27:01.295Z,0.40
2018-04-24T13:29:29.595Z,0.50
2018-04-24T13:31:57.878Z,0.40
2018-04-24T13:34:26.917Z,0.50
2018-04-24T13:36:55.209Z,0.40
2018-04-24T13:39:23.465Z,0.50
2018-04-24T13:41:51.764Z,0.50
2018-04-24T13:44:20.004Z,0.50
2018-04-24T13:46:48.255Z,0.40
2018-04-24T13:49:17.271Z,0.47
2018-04-24T13:51:45.569Z,0.40
2018-04-24T13:54:13.821Z,0.40
2018-04-24T13:56:42.858Z,0.40
2018-04-24T13:59:11.097Z,0.50
2018-04-24T14:01:39.383Z,0.43
2018-04-24T14:04:07.691Z,0.40
2018-04-24T14:06:35.940Z,0.40
2018-04-24T14:09:04.231Z,0.30
2018-04-24T14:11:32.526Z,0.40
2018-04-24T14:14:00.770Z,0.40
2018-04-24T14:16:29.030Z,0.47
2018-04-24T14:18:58.095Z,0.50
2018-04-24T14:21:26.426Z,0.50
2018-04-24T14:23:54.643Z,0.40
2018-04-24T14:26:23.268Z,0.40
2018-04-24T14:28:52.757Z,0.40
2018-04-24T14:31:21.762Z,0.40
2018-04-24T14:33:51.429Z,0.40
2018-04-24T14:36:19.664Z,0.40
2018-04-24T14:38:47.974Z,0.50
2018-04-24T14:41:16.216Z,0.43
2018-04-24T14:43:44.517Z,0.40
2018-04-24T14:46:12.766Z,0.40
2018-04-24T14:48:41.821Z,0.50
2018-04-24T14:51:10.120Z,0.40
2018-04-24T14:53:38.416Z,0.40
2018-04-24T14:56:07.458Z,0.40
2018-04-24T14:58:35.726Z,0.50
2018-04-24T15:01:04.000Z,0.40
2018-04-24T15:03:32.291Z,0.40
2018-04-24T15:06:00.602Z,0.40
2018-04-24T15:08:28.881Z,0.40
2018-04-24T15:10:57.943Z,0.40
2018-04-24T15:13:26.230Z,0.40
2018-04-24T15:15:54.485Z,0.40
2018-04-24T15:18:22.754Z,0.40
2018-04-24T15:20:51.148Z,0.50
2018-04-24T15:23:19.407Z,0.40
2018-04-24T15:25:47.694Z,0.43
2018-04-24T15:28:15.990Z,0.47
2018-04-24T15:30:44.249Z,0.50
2018-04-24T15:33:12.529Z,0.40
2018-04-24T15:35:40.830Z,0.40
2018-04-24T15:38:09.097Z,0.40
2018-04-24T15:40:37.357Z,0.40
2018-04-24T15:43:05.616Z,0.40
2018-04-24T15:45:33.892Z,0.40
2018-04-24T15:48:02.276Z,0.40
2018-04-24T15:50:31.248Z,0.40
2018-04-24T15:52:59.515Z,0.40
2018-04-24T15:55:28.553Z,0.40
2018-04-24T15:57:56.804Z,0.40
2018-04-24T16:00:25.047Z,0.40
2018-04-24T16:02:54.145Z,0.40
2018-04-24T16:05:22.425Z,0.50
2018-04-24T16:07:50.748Z,0.50
2018-04-24T16:10:19.035Z,0.50
2018-04-24T16:12:47.322Z,0.43
2018-04-24T16:15:15.596Z,0.50
2018-04-24T16:17:43.868Z,0.57
2018-04-24T16:20:12.174Z,0.40
2018-04-24T16:22:40.406Z,0.50
2018-04-24T16:25:08.688Z,0.50
2018-04-24T16:27:37.089Z,0.50
2018-04-24T16:30:05.424Z,0.50
2018-04-24T16:32:33.632Z,0.50
2018-04-24T16:35:01.912Z,0.50
2018-04-24T16:37:30.205Z,0.40
2018-04-24T16:39:58.512Z,0.50
2018-04-24T16:42:26.737Z,0.40
2018-04-24T16:44:55.031Z,0.37
2018-04-24T16:47:23.302Z,0.40
2018-04-24T16:49:51.575Z,0.40
2018-04-24T16:52:19.825Z,0.50
2018-04-24T16:54:48.084Z,0.50
2018-04-24T16:57:17.171Z,0.40
2018-04-24T16:59:46.221Z,0.50
2018-04-24T17:02:14.476Z,0.50
2018-04-24T17:04:42.776Z,0.40
2018-04-24T17:07:11.024Z,0.50
2018-04-24T17:09:39.285Z,0.43
2018-04-24T17:12:08.294Z,0.40
2018-04-24T17:14:36.586Z,0.40
2018-04-24T17:17:04.886Z,0.40
2018-04-24T17:19:33.133Z,0.40
2018-04-24T17:22:01.412Z,0.40
2018-04-24T17:24:29.693Z,0.50
2018-04-24T17:26:57.945Z,0.50
2018-04-24T17:29:26.982Z,0.40
2018-04-24T17:31:55.238Z,0.40
2018-04-24T17:34:23.516Z,0.40
2018-04-24T17:36:51.866Z,0.50
2018-04-24T17:39:20.887Z,0.50
2018-04-24T17:41:49.166Z,0.50
2018-04-24T17:44:17.460Z,0.43
2018-04-24T17:46:45.715Z,0.50
2018-04-24T17:49:14.015Z,0.50
2018-04-24T17:51:42.295Z,0.40
2018-04-24T17:54:10.547Z,0.50
2018-04-24T17:56:38.800Z,0.40
2018-04-24T17:59:07.850Z,0.40
2018-04-24T18:01:36.084Z,0.50
2018-04-24T18:04:04.352Z,0.50
2018-04-24T18:06:33.990Z,0.50
2018-04-24T18:09:02.302Z,0.50
2018-04-24T18:11:32.135Z,0.50
2018-04-24T18:14:00.372Z,0.40
2018-04-24T18:16:28.667Z,0.50
2018-04-24T18:18:56.941Z,0.40
2018-04-24T18:21:25.325Z,0.40
2018-04-24T18:23:53.559Z,0.50
2018-04-24T18:26:21.813Z,0.50
2018-04-24T18:28:50.932Z,0.50
2018-04-24T18:31:19.185Z,0.50
2018-04-24T18:33:48.238Z,0.50
2018-04-24T18:36:16.548Z,0.50
2018-04-24T18:38:44.793Z,0.47
2018-04-24T18:41:13.077Z,0.50
2018-04-24T18:43:41.332Z,0.50
2018-04-24T18:46:09.617Z,0.50
2018-04-24T18:48:37.876Z,0.50
2018-04-24T18:51:06.152Z,0.50
2018-04-24T18:53:34.412Z,0.50
2018-04-24T18:56:02.703Z,0.40
2018-04-24T18:58:31.209Z,0.40
2018-04-24T19:00:59.498Z,0.50
2018-04-24T19:03:27.791Z,0.60
2018-04-24T19:05:56.837Z,0.50
2018-04-24T19:08:25.137Z,0.57
2018-04-24T19:10:53.442Z,0.53
2018-04-24T19:13:21.719Z,0.60
2018-04-24T19:15:51.518Z,0.50
2018-04-24T19:18:25.424Z,0.60
2018-04-24T19:20:53.708Z,0.60
2018-04-24T19:23:22.004Z,0.60
2018-04-24T19:25:50.323Z,0.60
2018-04-24T19:28:18.589Z,0.60
2018-04-24T19:30:46.859Z,0.60
2018-04-24T19:33:15.122Z,0.60
2018-04-24T19:35:44.210Z,0.60
2018-04-24T19:38:12.447Z,0.50
2018-04-24T19:40:46.444Z,0.60
2018-04-24T19:43:14.616Z,0.60
2018-04-24T19:45:42.907Z,0.60
2018-04-24T19:48:17.056Z,0.60
2018-04-24T19:50:45.391Z,0.60
2018-04-24T19:53:13.663Z,0.60
2018-04-24T19:55:42.100Z,0.60
2018-04-24T19:58:10.409Z,0.60
2018-04-24T20:00:38.688Z,0.60
2018-04-24T20:03:06.990Z,0.60
2018-04-24T20:05:35.284Z,0.60
2018-04-24T20:08:03.581Z,0.60
2018-04-24T20:10:32.633Z,0.60
2018-04-24T20:13:01.615Z,0.60
2018-04-24T20:15:30.766Z,0.60
2018-04-24T20:17:59.090Z,0.60
2018-04-24T20:20:27.369Z,0.60
2018-04-24T20:22:55.631Z,0.60
2018-04-24T20:25:23.913Z,0.60
2018-04-24T20:27:52.239Z,0.60
2018-04-24T20:30:20.517Z,0.60
2018-04-24T20:32:48.805Z,0.60
2018-04-24T20:35:17.056Z,0.60
2018-04-24T20:37:45.298Z,0.60
2018-04-24T20:40:13.595Z,0.60
2018-04-24T20:42:41.881Z,0.60
2018-04-24T20:45:10.201Z,0.60
2018-04-24T20:47:39.256Z,0.60
2018-04-24T20:50:07.520Z,0.60
2018-04-24T20:52:35.772Z,0.60
2018-04-24T20:55:04.077Z,0.60
2018-04-24T20:57:32.324Z,0.60
2018-04-24T21:00:01.346Z,0.60
2018-04-24T21:02:29.590Z,0.60
2018-04-24T21:04:58.937Z,0.60
2018-04-24T21:07:27.183Z,0.60
2018-04-24T21:09:55.478Z,0.60
2018-04-24T21:12:23.721Z,0.60
2018-04-24T21:14:52.803Z,0.60
2018-04-24T21:17:21.818Z,0.60
2018-04-24T21:19:50.875Z,0.60
2018-04-24T21:22:19.178Z,0.60
2018-04-24T21:24:48.176Z,0.60
2018-04-24T21:27:17.220Z,0.60
2018-04-24T21:29:45.472Z,0.60
2018-04-24T21:32:13.775Z,0.60
2018-04-24T21:34:42.058Z,0.60
2018-04-24T21:37:10.319Z,0.60
2018-04-24T21:39:38.617Z,0.60
2018-04-24T21:42:06.929Z,0.60
2018-04-24T21:44:35.947Z,0.60
2018-04-24T21:47:04.252Z,0.60
2018-04-24T21:49:32.491Z,0.63
2018-04-24T21:52:00.740Z,0.60
2018-04-24T21:54:28.991Z,0.60
2018-04-24T21:56:57.296Z,0.60
2018-04-24T21:59:25.566Z,0.60
2018-04-24T22:01:53.823Z,0.60
2018-04-24T22:04:22.073Z,0.60
2018-04-24T22:06:50.315Z,0.60
2018-04-24T22:09:19.375Z,0.60
2018-04-24T22:11:47.652Z,0.70
2018-04-24T22:14:15.915Z,0.60
2018-04-24T22:16:44.208Z,0.70
2018-04-24T22:19:12.460Z,0.60
2018-04-24T22:21:40.724Z,0.70
2018-04-24T22:24:09.019Z,0.60
2018-04-24T22:26:37.300Z,0.60
2018-04-24T22:29:05.579Z,0.60
2018-04-24T22:31:33.859Z,0.60
2018-04-24T22:34:02.108Z,0.70
2018-04-24T22:36:30.363Z,0.70
2018-04-24T22:38:59.423Z,0.60
2018-04-24T22:41:27.962Z,0.60
2018-04-24T22:43:56.973Z,0.60
2018-04-24T22:46:25.313Z,0.67
2018-04-24T22:48:54.364Z,0.70
2018-04-24T22:51:22.607Z,0.60
2018-04-24T22:53:50.898Z,0.60
2018-04-24T22:56:19.192Z,0.70
2018-04-24T22:58:47.471Z,0.60
2018-04-24T23:01:15.721Z,0.60
2018-04-24T23:03:43.997Z,0.70
2018-04-24T23:06:12.249Z,0.60
2018-04-24T23:08:41.287Z,0.70
2018-04-24T23:11:21.552Z,0.70
2018-04-24T23:14:01.781Z,0.60
2018-04-24T23:16:42.058Z,0.60
2018-04-24T23:19:22.147Z,0.70
2018-04-24T23:21:49.928Z,0.60
2018-04-24T23:24:18.970Z,0.60
2018-04-24T23:26:47.262Z,0.60
2018-04-24T23:29:15.507Z,0.70
2018-04-24T23:31:43.797Z,0.60
2018-04-24T23:34:12.030Z,0.70
2018-04-24T23:36:41.073Z,0.60
2018-04-24T23:39:09.342Z,0.70
2018-04-24T23:41:37.647Z,0.60
2018-04-24T23:44:05.917Z,0.60
2018-04-24T23:46:34.228Z,0.60
2018-04-24T23:49:02.575Z,0.60
2018-04-24T23:51:30.820Z,0.60
2018-04-24T23:53:59.071Z,0.70
2018-04-24T23:56:27.310Z,0.70
2018-04-24T23:58:55.564Z,0.60
